sensor_id;sensor_type;location;lat;lon;timestamp;P1;durP1;ratioP1;P2;durP2;ratioP2
58874;SDS011;44652;49.040;12.126;2023-11-19T07:40:53;3.13;;;1.70;;
58874;SDS011;44652;49.040;12.126;2023-11-19T07:43:22;1.45;;;0.85;;
58874;SDS011;44652;49.040;12.126;2023-11-19T07:45:49;2.58;;;1.65;;
58874;SDS011;44652;49.040;12.126;2023-11-19T07:48:16;3.33;;;1.75;;
58874;SDS011;44652;49.040;12.126;2023-11-19T07:50:44;2.72;;;1.63;;
58874;SDS011;44652;49.040;12.126;2023-11-19T07:53:11;1.92;;;1.08;;
58874;SDS011;44652;49.040;12.126;2023-11-19T07:55:39;1.42;;;1.08;;
58874;SDS011;44652;49.040;12.126;2023-11-19T07:58:08;2.63;;;1.65;;
58874;SDS011;44652;49.040;12.126;2023-11-19T08:00:34;1.65;;;1.25;;
58874;SDS011;44652;49.040;12.126;2023-11-19T08:03:01;2.25;;;1.20;;
58874;SDS011;44652;49.040;12.126;2023-11-19T08:05:28;0.77;;;0.75;;
58874;SDS011;44652;49.040;12.126;2023-11-19T08:07:55;2.92;;;1.85;;
58874;SDS011;44652;49.040;12.126;2023-11-19T08:10:22;9.88;;;4.80;;
58874;SDS011;44652;49.040;12.126;2023-11-19T08:12:48;1.15;;;1.00;;
58874;SDS011;44652;49.040;12.126;2023-11-19T08:15:15;0.93;;;0.75;;
58874;SDS011;44652;49.040;12.126;2023-11-19T08:17:57;1.40;;;1.08;;
58874;SDS011;44652;49.040;12.126;2023-11-19T08:20:24;2.05;;;1.45;;
58874;SDS011;44652;49.040;12.126;2023-11-19T08:22:51;1.90;;;1.13;;
58874;SDS011;44652;49.040;12.126;2023-11-19T08:25:17;1.40;;;1.08;;
58874;SDS011;44652;49.040;12.126;2023-11-19T08:27:44;1.17;;;1.05;;
58874;SDS011;44652;49.040;12.126;2023-11-19T08:30:11;1.83;;;1.27;;
58874;SDS011;44652;49.040;12.126;2023-11-19T08:32:38;1.83;;;1.02;;
58874;SDS011;44652;49.040;12.126;2023-11-19T08:35:05;2.83;;;1.42;;
58874;SDS011;44652;49.040;12.126;2023-11-19T08:37:32;1.27;;;0.85;;
58874;SDS011;44652;49.040;12.126;2023-11-19T08:39:59;2.53;;;1.50;;
58874;SDS011;44652;49.040;12.126;2023-11-19T08:42:27;2.28;;;1.35;;
58874;SDS011;44652;49.040;12.126;2023-11-19T08:44:54;2.17;;;1.33;;
58874;SDS011;44652;49.040;12.126;2023-11-19T08:47:21;3.50;;;1.77;;
58874;SDS011;44652;49.040;12.126;2023-11-19T08:49:52;1.15;;;0.82;;
58874;SDS011;44652;49.040;12.126;2023-11-19T08:52:22;2.17;;;1.70;;
58874;SDS011;44652;49.040;12.126;2023-11-19T08:54:49;1.58;;;1.15;;
58874;SDS011;44652;49.040;12.126;2023-11-19T08:57:16;2.25;;;1.90;;
58874;SDS011;44652;49.040;12.126;2023-11-19T08:59:43;1.67;;;1.25;;
58874;SDS011;44652;49.040;12.126;2023-11-19T09:02:12;1.00;;;0.88;;
58874;SDS011;44652;49.040;12.126;2023-11-19T09:04:38;1.67;;;1.00;;
58874;SDS011;44652;49.040;12.126;2023-11-19T09:07:05;2.30;;;1.33;;
58874;SDS011;44652;49.040;12.126;2023-11-19T09:09:32;2.63;;;1.55;;
58874;SDS011;44652;49.040;12.126;2023-11-19T09:12:03;1.95;;;1.10;;
58874;SDS011;44652;49.040;12.126;2023-11-19T09:14:30;0.95;;;0.68;;
58874;SDS011;44652;49.040;12.126;2023-11-19T09:16:58;1.60;;;1.33;;
58874;SDS011;44652;49.040;12.126;2023-11-19T09:19:25;2.22;;;1.42;;
58874;SDS011;44652;49.040;12.126;2023-11-19T09:21:53;3.23;;;1.50;;
58874;SDS011;44652;49.040;12.126;2023-11-19T09:24:19;1.73;;;0.98;;
58874;SDS011;44652;49.040;12.126;2023-11-19T09:26:46;2.33;;;1.40;;
58874;SDS011;44652;49.040;12.126;2023-11-19T09:29:13;1.55;;;1.20;;
58874;SDS011;44652;49.040;12.126;2023-11-19T09:31:41;1.55;;;1.00;;
58874;SDS011;44652;49.040;12.126;2023-11-19T09:34:07;3.70;;;2.08;;
58874;SDS011;44652;49.040;12.126;2023-11-19T09:36:34;2.03;;;1.50;;
58874;SDS011;44652;49.040;12.126;2023-11-19T09:39:01;2.30;;;1.75;;
58874;SDS011;44652;49.040;12.126;2023-11-19T09:41:29;2.15;;;1.65;;
58874;SDS011;44652;49.040;12.126;2023-11-19T09:46:23;2.55;;;1.33;;
58874;SDS011;44652;49.040;12.126;2023-11-19T09:48:52;3.45;;;2.00;;
58874;SDS011;44652;49.040;12.126;2023-11-19T09:51:21;2.63;;;1.83;;
58874;SDS011;44652;49.040;12.126;2023-11-19T09:53:51;1.98;;;1.23;;
58874;SDS011;44652;49.040;12.126;2023-11-19T09:56:17;2.55;;;1.75;;
58874;SDS011;44652;49.040;12.126;2023-11-19T09:58:45;3.08;;;2.00;;
58874;SDS011;44652;49.040;12.126;2023-11-19T10:01:11;3.85;;;2.70;;
58874;SDS011;44652;49.040;12.126;2023-11-19T10:03:41;3.05;;;2.22;;
58874;SDS011;44652;49.040;12.126;2023-11-19T10:06:10;3.50;;;1.95;;
58874;SDS011;44652;49.040;12.126;2023-11-19T10:08:37;3.70;;;2.22;;
58874;SDS011;44652;49.040;12.126;2023-11-19T10:11:08;2.75;;;1.85;;
58874;SDS011;44652;49.040;12.126;2023-11-19T10:13:37;3.88;;;2.03;;
58874;SDS011;44652;49.040;12.126;2023-11-19T10:16:09;2.40;;;1.52;;
58874;SDS011;44652;49.040;12.126;2023-11-19T10:18:45;3.17;;;1.83;;
58874;SDS011;44652;49.040;12.126;2023-11-19T10:21:12;1.92;;;1.40;;
58874;SDS011;44652;49.040;12.126;2023-11-19T10:23:50;3.78;;;2.08;;
58874;SDS011;44652;49.040;12.126;2023-11-19T10:26:18;3.90;;;2.38;;
58874;SDS011;44652;49.040;12.126;2023-11-19T10:28:47;3.15;;;1.67;;
58874;SDS011;44652;49.040;12.126;2023-11-19T10:31:14;3.35;;;2.53;;
58874;SDS011;44652;49.040;12.126;2023-11-19T10:33:42;3.90;;;1.90;;
58874;SDS011;44652;49.040;12.126;2023-11-19T10:36:14;3.35;;;2.35;;
58874;SDS011;44652;49.040;12.126;2023-11-19T10:38:41;2.63;;;1.75;;
58874;SDS011;44652;49.040;12.126;2023-11-19T10:41:28;3.75;;;2.28;;
58874;SDS011;44652;49.040;12.126;2023-11-19T10:43:55;3.08;;;1.80;;
58874;SDS011;44652;49.040;12.126;2023-11-19T10:46:22;3.00;;;1.80;;
58874;SDS011;44652;49.040;12.126;2023-11-19T10:48:49;3.22;;;2.03;;
58874;SDS011;44652;49.040;12.126;2023-11-19T10:51:18;4.30;;;2.13;;
58874;SDS011;44652;49.040;12.126;2023-11-19T10:53:49;4.30;;;3.05;;
58874;SDS011;44652;49.040;12.126;2023-11-19T10:56:20;3.92;;;2.75;;
58874;SDS011;44652;49.040;12.126;2023-11-19T10:58:51;4.97;;;2.83;;
58874;SDS011;44652;49.040;12.126;2023-11-19T11:01:20;4.40;;;1.65;;
58874;SDS011;44652;49.040;12.126;2023-11-19T11:03:51;8.10;;;1.77;;
58874;SDS011;44652;49.040;12.126;2023-11-19T11:06:20;2.75;;;1.80;;
58874;SDS011;44652;49.040;12.126;2023-11-19T11:08:48;4.22;;;2.65;;
58874;SDS011;44652;49.040;12.126;2023-11-19T11:11:15;3.42;;;2.10;;
58874;SDS011;44652;49.040;12.126;2023-11-19T11:13:43;4.45;;;2.22;;
58874;SDS011;44652;49.040;12.126;2023-11-19T11:16:12;5.28;;;2.63;;
58874;SDS011;44652;49.040;12.126;2023-11-19T11:18:40;2.10;;;1.15;;
58874;SDS011;44652;49.040;12.126;2023-11-19T11:21:07;4.35;;;2.50;;
58874;SDS011;44652;49.040;12.126;2023-11-19T11:26:32;3.45;;;2.20;;
58874;SDS011;44652;49.040;12.126;2023-11-19T11:37:32;3.15;;;1.92;;
58874;SDS011;44652;49.040;12.126;2023-11-19T11:40:01;4.78;;;3.22;;
58874;SDS011;44652;49.040;12.126;2023-11-19T11:42:37;4.72;;;3.10;;
58874;SDS011;44652;49.040;12.126;2023-11-19T11:50:13;10.98;;;6.45;;
58874;SDS011;44652;49.040;12.126;2023-11-19T11:55:35;4.30;;;2.45;;
58874;SDS011;44652;49.040;12.126;2023-11-19T11:58:03;4.43;;;2.05;;
58874;SDS011;44652;49.040;12.126;2023-11-19T12:00:33;3.67;;;2.05;;
58874;SDS011;44652;49.040;12.126;2023-11-19T12:03:04;3.25;;;1.67;;
58874;SDS011;44652;49.040;12.126;2023-11-19T12:05:51;2.95;;;1.98;;
58874;SDS011;44652;49.040;12.126;2023-11-19T12:08:19;4.10;;;2.42;;
58874;SDS011;44652;49.040;12.126;2023-11-19T12:10:52;4.15;;;1.92;;
58874;SDS011;44652;49.040;12.126;2023-11-19T12:13:21;4.03;;;2.20;;
58874;SDS011;44652;49.040;12.126;2023-11-19T12:18:24;3.42;;;2.28;;
58874;SDS011;44652;49.040;12.126;2023-11-19T12:20:53;6.43;;;2.97;;
58874;SDS011;44652;49.040;12.126;2023-11-19T12:23:23;4.47;;;2.33;;
58874;SDS011;44652;49.040;12.126;2023-11-19T12:25:50;6.53;;;2.90;;
58874;SDS011;44652;49.040;12.126;2023-11-19T12:28:17;4.75;;;2.75;;
58874;SDS011;44652;49.040;12.126;2023-11-19T12:30:44;5.78;;;2.72;;
58874;SDS011;44652;49.040;12.126;2023-11-19T12:33:12;4.85;;;2.67;;
58874;SDS011;44652;49.040;12.126;2023-11-19T12:35:39;6.35;;;3.55;;
58874;SDS011;44652;49.040;12.126;2023-11-19T12:41:04;5.35;;;3.08;;
58874;SDS011;44652;49.040;12.126;2023-11-19T12:43:31;9.63;;;2.90;;
58874;SDS011;44652;49.040;12.126;2023-11-19T12:46:17;3.45;;;2.25;;
58874;SDS011;44652;49.040;12.126;2023-11-19T12:48:49;10.75;;;6.15;;
58874;SDS011;44652;49.040;12.126;2023-11-19T12:51:18;9.63;;;4.78;;
58874;SDS011;44652;49.040;12.126;2023-11-19T12:53:48;10.82;;;4.80;;
58874;SDS011;44652;49.040;12.126;2023-11-19T12:56:16;7.20;;;3.60;;
58874;SDS011;44652;49.040;12.126;2023-11-19T12:58:43;21.95;;;6.00;;
58874;SDS011;44652;49.040;12.126;2023-11-19T13:01:09;7.93;;;4.35;;
58874;SDS011;44652;49.040;12.126;2023-11-19T13:03:41;8.93;;;5.50;;
58874;SDS011;44652;49.040;12.126;2023-11-19T13:06:09;9.20;;;5.72;;
58874;SDS011;44652;49.040;12.126;2023-11-19T13:08:41;26.95;;;8.43;;
58874;SDS011;44652;49.040;12.126;2023-11-19T13:11:12;34.28;;;6.13;;
58874;SDS011;44652;49.040;12.126;2023-11-19T13:16:42;5.40;;;3.28;;
58874;SDS011;44652;49.040;12.126;2023-11-19T13:19:09;8.02;;;5.43;;
58874;SDS011;44652;49.040;12.126;2023-11-19T13:21:36;11.25;;;5.30;;
58874;SDS011;44652;49.040;12.126;2023-11-19T13:24:04;4.63;;;2.47;;
58874;SDS011;44652;49.040;12.126;2023-11-19T13:26:32;3.85;;;2.67;;
58874;SDS011;44652;49.040;12.126;2023-11-19T13:28:58;4.57;;;2.53;;
58874;SDS011;44652;49.040;12.126;2023-11-19T13:31:25;2.30;;;1.67;;
58874;SDS011;44652;49.040;12.126;2023-11-19T13:33:52;3.15;;;2.05;;
58874;SDS011;44652;49.040;12.126;2023-11-19T13:36:19;3.10;;;1.70;;
58874;SDS011;44652;49.040;12.126;2023-11-19T13:38:46;5.53;;;2.92;;
58874;SDS011;44652;49.040;12.126;2023-11-19T13:41:13;3.40;;;1.85;;
58874;SDS011;44652;49.040;12.126;2023-11-19T13:43:40;6.15;;;2.08;;
58874;SDS011;44652;49.040;12.126;2023-11-19T13:46:07;3.15;;;1.45;;
58874;SDS011;44652;49.040;12.126;2023-11-19T13:48:37;1.75;;;1.05;;
58874;SDS011;44652;49.040;12.126;2023-11-19T13:51:04;1.73;;;0.80;;
58874;SDS011;44652;49.040;12.126;2023-11-19T13:53:32;1.48;;;0.88;;
58874;SDS011;44652;49.040;12.126;2023-11-19T13:56:17;2.15;;;0.98;;
58874;SDS011;44652;49.040;12.126;2023-11-19T13:58:44;1.88;;;0.90;;
58874;SDS011;44652;49.040;12.126;2023-11-19T14:01:10;1.60;;;1.08;;
58874;SDS011;44652;49.040;12.126;2023-11-19T14:06:06;1.70;;;1.00;;
58874;SDS011;44652;49.040;12.126;2023-11-19T14:08:34;1.10;;;0.90;;
58874;SDS011;44652;49.040;12.126;2023-11-19T14:11:01;4.13;;;2.40;;
58874;SDS011;44652;49.040;12.126;2023-11-19T14:13:28;2.40;;;1.40;;
58874;SDS011;44652;49.040;12.126;2023-11-19T14:15:55;2.85;;;1.33;;
58874;SDS011;44652;49.040;12.126;2023-11-19T14:18:22;1.38;;;0.80;;
58874;SDS011;44652;49.040;12.126;2023-11-19T14:20:49;1.38;;;0.95;;
58874;SDS011;44652;49.040;12.126;2023-11-19T14:23:16;2.25;;;0.88;;
58874;SDS011;44652;49.040;12.126;2023-11-19T14:25:43;0.80;;;0.50;;
58874;SDS011;44652;49.040;12.126;2023-11-19T14:28:09;3.25;;;1.30;;
58874;SDS011;44652;49.040;12.126;2023-11-19T14:30:36;4.47;;;1.17;;
58874;SDS011;44652;49.040;12.126;2023-11-19T14:33:03;1.70;;;1.02;;
58874;SDS011;44652;49.040;12.126;2023-11-19T14:35:31;1.35;;;0.80;;
58874;SDS011;44652;49.040;12.126;2023-11-19T14:38:01;1.15;;;0.80;;
58874;SDS011;44652;49.040;12.126;2023-11-19T14:40:31;0.95;;;0.60;;
58874;SDS011;44652;49.040;12.126;2023-11-19T14:43:01;2.70;;;1.30;;
58874;SDS011;44652;49.040;12.126;2023-11-19T14:45:28;1.67;;;0.87;;
58874;SDS011;44652;49.040;12.126;2023-11-19T14:48:07;1.67;;;0.90;;
58874;SDS011;44652;49.040;12.126;2023-11-19T14:50:33;2.50;;;0.70;;
58874;SDS011;44652;49.040;12.126;2023-11-19T14:53:03;0.80;;;0.50;;
58874;SDS011;44652;49.040;12.126;2023-11-19T14:55:33;1.45;;;0.57;;
58874;SDS011;44652;49.040;12.126;2023-11-19T14:58:00;6.63;;;3.13;;
58874;SDS011;44652;49.040;12.126;2023-11-19T15:00:35;8.88;;;3.13;;
58874;SDS011;44652;49.040;12.126;2023-11-19T15:03:01;22.38;;;5.78;;
58874;SDS011;44652;49.040;12.126;2023-11-19T15:05:28;24.08;;;5.88;;
58874;SDS011;44652;49.040;12.126;2023-11-19T15:07:55;20.55;;;4.30;;
58874;SDS011;44652;49.040;12.126;2023-11-19T15:10:22;1.88;;;1.02;;
58874;SDS011;44652;49.040;12.126;2023-11-19T15:12:51;32.95;;;8.50;;
58874;SDS011;44652;49.040;12.126;2023-11-19T15:15:20;16.90;;;3.38;;
58874;SDS011;44652;49.040;12.126;2023-11-19T15:18:07;4.25;;;1.70;;
58874;SDS011;44652;49.040;12.126;2023-11-19T15:20:34;3.65;;;1.40;;
58874;SDS011;44652;49.040;12.126;2023-11-19T15:23:00;1.75;;;0.98;;
58874;SDS011;44652;49.040;12.126;2023-11-19T15:25:27;1.13;;;0.82;;
58874;SDS011;44652;49.040;12.126;2023-11-19T15:27:54;3.35;;;1.30;;
58874;SDS011;44652;49.040;12.126;2023-11-19T15:30:36;1.95;;;1.08;;
58874;SDS011;44652;49.040;12.126;2023-11-19T15:33:03;1.63;;;0.88;;
58874;SDS011;44652;49.040;12.126;2023-11-19T15:35:29;2.85;;;1.75;;
58874;SDS011;44652;49.040;12.126;2023-11-19T15:37:59;1.35;;;0.63;;
58874;SDS011;44652;49.040;12.126;2023-11-19T15:50:29;5.50;;;2.30;;
58874;SDS011;44652;49.040;12.126;2023-11-19T15:52:58;2.80;;;2.03;;
58874;SDS011;44652;49.040;12.126;2023-11-19T15:55:25;4.03;;;1.83;;
58874;SDS011;44652;49.040;12.126;2023-11-19T15:57:52;2.53;;;1.20;;
58874;SDS011;44652;49.040;12.126;2023-11-19T16:00:19;4.95;;;2.40;;
58874;SDS011;44652;49.040;12.126;2023-11-19T16:02:48;4.43;;;2.03;;
58874;SDS011;44652;49.040;12.126;2023-11-19T16:05:23;7.43;;;3.15;;
58874;SDS011;44652;49.040;12.126;2023-11-19T16:07:52;7.50;;;3.65;;
58874;SDS011;44652;49.040;12.126;2023-11-19T16:10:19;3.97;;;2.28;;
58874;SDS011;44652;49.040;12.126;2023-11-19T16:12:51;8.50;;;3.33;;
58874;SDS011;44652;49.040;12.126;2023-11-19T16:15:18;45.00;;;13.43;;
58874;SDS011;44652;49.040;12.126;2023-11-19T16:17:49;10.85;;;5.50;;
58874;SDS011;44652;49.040;12.126;2023-11-19T16:20:16;13.85;;;4.53;;
58874;SDS011;44652;49.040;12.126;2023-11-19T16:22:43;32.58;;;8.13;;
58874;SDS011;44652;49.040;12.126;2023-11-19T16:25:10;5.32;;;2.55;;
58874;SDS011;44652;49.040;12.126;2023-11-19T16:27:38;10.15;;;3.65;;
58874;SDS011;44652;49.040;12.126;2023-11-19T16:30:09;3.15;;;1.35;;
58874;SDS011;44652;49.040;12.126;2023-11-19T16:35:18;5.50;;;1.48;;
58874;SDS011;44652;49.040;12.126;2023-11-19T16:37:45;3.65;;;1.75;;
58874;SDS011;44652;49.040;12.126;2023-11-19T16:40:14;2.78;;;1.40;;
58874;SDS011;44652;49.040;12.126;2023-11-19T16:42:41;6.78;;;1.30;;
58874;SDS011;44652;49.040;12.126;2023-11-19T16:45:08;2.88;;;1.23;;
58874;SDS011;44652;49.040;12.126;2023-11-19T16:47:35;2.08;;;1.27;;
58874;SDS011;44652;49.040;12.126;2023-11-19T16:50:02;4.95;;;2.10;;
58874;SDS011;44652;49.040;12.126;2023-11-19T16:52:30;3.42;;;1.63;;
58874;SDS011;44652;49.040;12.126;2023-11-19T16:54:59;4.97;;;2.08;;
58874;SDS011;44652;49.040;12.126;2023-11-19T16:57:27;6.55;;;3.92;;
58874;SDS011;44652;49.040;12.126;2023-11-19T16:59:54;9.48;;;5.13;;
58874;SDS011;44652;49.040;12.126;2023-11-19T17:02:25;6.78;;;3.83;;
58874;SDS011;44652;49.040;12.126;2023-11-19T17:04:52;7.53;;;3.83;;
58874;SDS011;44652;49.040;12.126;2023-11-19T17:07:19;5.32;;;2.67;;
58874;SDS011;44652;49.040;12.126;2023-11-19T17:09:46;6.50;;;3.45;;
58874;SDS011;44652;49.040;12.126;2023-11-19T17:12:13;5.13;;;2.72;;
58874;SDS011;44652;49.040;12.126;2023-11-19T17:14:39;4.47;;;2.13;;
58874;SDS011;44652;49.040;12.126;2023-11-19T17:17:06;5.55;;;2.28;;
58874;SDS011;44652;49.040;12.126;2023-11-19T17:19:33;4.65;;;2.72;;
58874;SDS011;44652;49.040;12.126;2023-11-19T17:22:00;9.13;;;3.78;;
58874;SDS011;44652;49.040;12.126;2023-11-19T17:24:26;5.90;;;2.92;;
58874;SDS011;44652;49.040;12.126;2023-11-19T17:26:53;4.28;;;2.63;;
58874;SDS011;44652;49.040;12.126;2023-11-19T17:29:20;5.32;;;2.92;;
58874;SDS011;44652;49.040;12.126;2023-11-19T17:31:48;7.22;;;4.25;;
58874;SDS011;44652;49.040;12.126;2023-11-19T17:34:14;8.85;;;4.13;;
58874;SDS011;44652;49.040;12.126;2023-11-19T17:36:41;6.70;;;3.58;;
58874;SDS011;44652;49.040;12.126;2023-11-19T17:39:08;8.23;;;3.95;;
58874;SDS011;44652;49.040;12.126;2023-11-19T17:41:35;6.30;;;3.78;;
58874;SDS011;44652;49.040;12.126;2023-11-19T17:44:01;3.80;;;2.03;;
58874;SDS011;44652;49.040;12.126;2023-11-19T17:46:28;5.53;;;2.80;;
58874;SDS011;44652;49.040;12.126;2023-11-19T17:48:55;4.35;;;2.03;;
58874;SDS011;44652;49.040;12.126;2023-11-19T17:51:21;4.07;;;2.03;;
58874;SDS011;44652;49.040;12.126;2023-11-19T17:53:49;2.05;;;1.05;;
58874;SDS011;44652;49.040;12.126;2023-11-19T17:56:16;4.10;;;1.90;;
58874;SDS011;44652;49.040;12.126;2023-11-19T17:58:43;3.73;;;2.17;;
58874;SDS011;44652;49.040;12.126;2023-11-19T18:01:10;4.47;;;1.77;;
58874;SDS011;44652;49.040;12.126;2023-11-19T18:03:37;3.25;;;2.00;;
58874;SDS011;44652;49.040;12.126;2023-11-19T18:06:04;4.03;;;2.08;;
58874;SDS011;44652;49.040;12.126;2023-11-19T18:08:32;3.45;;;1.90;;
58874;SDS011;44652;49.040;12.126;2023-11-19T18:10:58;3.50;;;2.03;;
58874;SDS011;44652;49.040;12.126;2023-11-19T18:13:25;3.97;;;2.17;;
58874;SDS011;44652;49.040;12.126;2023-11-19T18:15:52;5.40;;;2.25;;
58874;SDS011;44652;49.040;12.126;2023-11-19T18:18:20;4.90;;;2.00;;
58874;SDS011;44652;49.040;12.126;2023-11-19T18:20:47;5.10;;;2.92;;
58874;SDS011;44652;49.040;12.126;2023-11-19T18:23:14;7.18;;;3.47;;
58874;SDS011;44652;49.040;12.126;2023-11-19T18:25:41;10.02;;;3.10;;
58874;SDS011;44652;49.040;12.126;2023-11-19T18:28:08;6.15;;;3.10;;
58874;SDS011;44652;49.040;12.126;2023-11-19T18:30:35;6.00;;;3.00;;
58874;SDS011;44652;49.040;12.126;2023-11-19T18:33:04;5.78;;;3.25;;
58874;SDS011;44652;49.040;12.126;2023-11-19T18:35:55;12.88;;;6.63;;
58874;SDS011;44652;49.040;12.126;2023-11-19T18:38:25;14.90;;;7.93;;
58874;SDS011;44652;49.040;12.126;2023-11-19T18:41:07;11.80;;;6.85;;
58874;SDS011;44652;49.040;12.126;2023-11-19T18:43:34;5.82;;;1.73;;
58874;SDS011;44652;49.040;12.126;2023-11-19T18:46:01;3.78;;;1.98;;
58874;SDS011;44652;49.040;12.126;2023-11-19T18:52:03;1.27;;;0.75;;
58874;SDS011;44652;49.040;12.126;2023-11-19T18:54:33;2.10;;;1.35;;
58874;SDS011;44652;49.040;12.126;2023-11-19T18:57:01;3.15;;;1.15;;
58874;SDS011;44652;49.040;12.126;2023-11-19T19:02:23;1.67;;;1.02;;
58874;SDS011;44652;49.040;12.126;2023-11-19T19:04:52;3.00;;;1.60;;
58874;SDS011;44652;49.040;12.126;2023-11-19T19:07:19;5.13;;;0.70;;
58874;SDS011;44652;49.040;12.126;2023-11-19T19:09:56;1.70;;;0.90;;
58874;SDS011;44652;49.040;12.126;2023-11-19T19:12:24;6.15;;;0.68;;
58874;SDS011;44652;49.040;12.126;2023-11-19T19:14:50;1.35;;;0.80;;
58874;SDS011;44652;49.040;12.126;2023-11-19T19:17:18;0.95;;;0.70;;
58874;SDS011;44652;49.040;12.126;2023-11-19T19:19:45;0.60;;;0.60;;
58874;SDS011;44652;49.040;12.126;2023-11-19T19:22:12;1.70;;;0.82;;
58874;SDS011;44652;49.040;12.126;2023-11-19T19:24:39;1.58;;;0.98;;
58874;SDS011;44652;49.040;12.126;2023-11-19T19:27:06;1.83;;;1.02;;
58874;SDS011;44652;49.040;12.126;2023-11-19T19:29:34;1.20;;;0.82;;
58874;SDS011;44652;49.040;12.126;2023-11-19T19:32:00;2.35;;;1.20;;
58874;SDS011;44652;49.040;12.126;2023-11-19T19:34:27;1.75;;;1.00;;
58874;SDS011;44652;49.040;12.126;2023-11-19T19:39:23;3.13;;;1.05;;
58874;SDS011;44652;49.040;12.126;2023-11-19T19:41:50;3.20;;;1.88;;
58874;SDS011;44652;49.040;12.126;2023-11-19T19:44:17;2.60;;;1.48;;
58874;SDS011;44652;49.040;12.126;2023-11-19T19:49:13;1.60;;;0.80;;
58874;SDS011;44652;49.040;12.126;2023-11-19T19:51:40;2.00;;;0.70;;
58874;SDS011;44652;49.040;12.126;2023-11-19T19:54:07;0.63;;;0.40;;
58874;SDS011;44652;49.040;12.126;2023-11-19T19:56:34;2.00;;;0.50;;
58874;SDS011;44652;49.040;12.126;2023-11-19T19:59:01;1.27;;;0.43;;
58874;SDS011;44652;49.040;12.126;2023-11-19T20:01:28;3.05;;;0.80;;
58874;SDS011;44652;49.040;12.126;2023-11-19T20:03:54;2.08;;;0.80;;
58874;SDS011;44652;49.040;12.126;2023-11-19T20:06:21;1.02;;;0.45;;
58874;SDS011;44652;49.040;12.126;2023-11-19T20:08:50;0.77;;;0.60;;
58874;SDS011;44652;49.040;12.126;2023-11-19T20:11:18;1.35;;;0.85;;
58874;SDS011;44652;49.040;12.126;2023-11-19T20:13:44;0.57;;;0.40;;
58874;SDS011;44652;49.040;12.126;2023-11-19T20:16:11;2.10;;;0.52;;
58874;SDS011;44652;49.040;12.126;2023-11-19T20:18:38;2.63;;;0.70;;
58874;SDS011;44652;49.040;12.126;2023-11-19T20:21:05;2.45;;;0.75;;
58874;SDS011;44652;49.040;12.126;2023-11-19T20:23:35;0.77;;;0.52;;
58874;SDS011;44652;49.040;12.126;2023-11-19T20:26:01;1.20;;;0.85;;
58874;SDS011;44652;49.040;12.126;2023-11-19T20:28:28;0.70;;;0.50;;
58874;SDS011;44652;49.040;12.126;2023-11-19T20:30:55;1.98;;;0.95;;
58874;SDS011;44652;49.040;12.126;2023-11-19T20:33:22;1.58;;;0.70;;
58874;SDS011;44652;49.040;12.126;2023-11-19T20:35:51;3.58;;;1.02;;
58874;SDS011;44652;49.040;12.126;2023-11-19T20:38:17;1.25;;;0.65;;
58874;SDS011;44652;49.040;12.126;2023-11-19T20:40:44;0.82;;;0.50;;
58874;SDS011;44652;49.040;12.126;2023-11-19T20:43:11;2.40;;;0.90;;
58874;SDS011;44652;49.040;12.126;2023-11-19T20:45:37;1.48;;;0.93;;
58874;SDS011;44652;49.040;12.126;2023-11-19T20:48:05;0.88;;;0.60;;
58874;SDS011;44652;49.040;12.126;2023-11-19T20:50:32;1.35;;;0.60;;
58874;SDS011;44652;49.040;12.126;2023-11-19T20:53:00;0.75;;;0.45;;
58874;SDS011;44652;49.040;12.126;2023-11-19T20:55:27;2.80;;;0.90;;
58874;SDS011;44652;49.040;12.126;2023-11-19T20:57:55;1.77;;;0.70;;
58874;SDS011;44652;49.040;12.126;2023-11-19T21:00:24;2.00;;;1.13;;
58874;SDS011;44652;49.040;12.126;2023-11-19T21:02:50;1.98;;;0.93;;
58874;SDS011;44652;49.040;12.126;2023-11-19T21:05:20;2.97;;;1.15;;
58874;SDS011;44652;49.040;12.126;2023-11-19T21:07:47;3.40;;;1.17;;
58874;SDS011;44652;49.040;12.126;2023-11-19T21:10:14;0.73;;;0.52;;
58874;SDS011;44652;49.040;12.126;2023-11-19T21:12:41;3.03;;;0.73;;
58874;SDS011;44652;49.040;12.126;2023-11-19T21:15:08;2.38;;;1.13;;
58874;SDS011;44652;49.040;12.126;2023-11-19T21:17:35;1.02;;;0.90;;
58874;SDS011;44652;49.040;12.126;2023-11-19T21:20:02;2.05;;;1.02;;
58874;SDS011;44652;49.040;12.126;2023-11-19T21:22:29;2.42;;;1.20;;
58874;SDS011;44652;49.040;12.126;2023-11-19T21:24:56;2.67;;;0.63;;
58874;SDS011;44652;49.040;12.126;2023-11-19T21:27:23;0.85;;;0.55;;
58874;SDS011;44652;49.040;12.126;2023-11-19T21:29:50;0.38;;;0.35;;
58874;SDS011;44652;49.040;12.126;2023-11-19T21:32:16;0.57;;;0.57;;
58874;SDS011;44652;49.040;12.126;2023-11-19T21:34:43;2.88;;;1.85;;
58874;SDS011;44652;49.040;12.126;2023-11-19T21:37:10;1.35;;;0.85;;
58874;SDS011;44652;49.040;12.126;2023-11-19T21:39:37;1.90;;;0.82;;
58874;SDS011;44652;49.040;12.126;2023-11-19T21:42:04;2.47;;;1.38;;
58874;SDS011;44652;49.040;12.126;2023-11-19T21:44:31;2.28;;;0.90;;
58874;SDS011;44652;49.040;12.126;2023-11-19T21:46:58;1.08;;;0.65;;
58874;SDS011;44652;49.040;12.126;2023-11-19T21:49:25;1.23;;;0.73;;
58874;SDS011;44652;49.040;12.126;2023-11-19T21:51:51;3.20;;;1.20;;
58874;SDS011;44652;49.040;12.126;2023-11-19T21:54:18;5.43;;;1.42;;
58874;SDS011;44652;49.040;12.126;2023-11-19T21:56:45;6.75;;;2.53;;
58874;SDS011;44652;49.040;12.126;2023-11-19T21:59:12;4.75;;;1.73;;
58874;SDS011;44652;49.040;12.126;2023-11-19T22:01:39;1.48;;;0.88;;
58874;SDS011;44652;49.040;12.126;2023-11-19T22:04:05;2.63;;;1.20;;
58874;SDS011;44652;49.040;12.126;2023-11-19T22:06:32;0.45;;;0.45;;
58874;SDS011;44652;49.040;12.126;2023-11-19T22:08:59;1.92;;;1.10;;
58874;SDS011;44652;49.040;12.126;2023-11-19T22:11:26;0.70;;;0.60;;
58874;SDS011;44652;49.040;12.126;2023-11-19T22:13:54;0.55;;;0.52;;
58874;SDS011;44652;49.040;12.126;2023-11-19T22:16:21;1.33;;;0.80;;
58874;SDS011;44652;49.040;12.126;2023-11-19T22:18:48;1.73;;;0.73;;
58874;SDS011;44652;49.040;12.126;2023-11-19T22:21:16;0.83;;;0.60;;
58874;SDS011;44652;49.040;12.126;2023-11-19T22:23:42;4.10;;;0.60;;
58874;SDS011;44652;49.040;12.126;2023-11-19T22:26:09;1.08;;;0.57;;
58874;SDS011;44652;49.040;12.126;2023-11-19T22:28:36;0.68;;;0.65;;
58874;SDS011;44652;49.040;12.126;2023-11-19T22:31:05;1.85;;;0.68;;
58874;SDS011;44652;49.040;12.126;2023-11-19T22:33:32;0.80;;;0.68;;
58874;SDS011;44652;49.040;12.126;2023-11-19T22:35:59;1.05;;;0.63;;
58874;SDS011;44652;49.040;12.126;2023-11-19T22:38:26;1.00;;;0.68;;
58874;SDS011;44652;49.040;12.126;2023-11-19T22:40:53;1.27;;;1.00;;
58874;SDS011;44652;49.040;12.126;2023-11-19T22:43:20;0.73;;;0.60;;
58874;SDS011;44652;49.040;12.126;2023-11-19T22:45:47;1.45;;;0.65;;
58874;SDS011;44652;49.040;12.126;2023-11-19T22:48:14;2.13;;;0.82;;
58874;SDS011;44652;49.040;12.126;2023-11-19T22:50:41;0.55;;;0.50;;
58874;SDS011;44652;49.040;12.126;2023-11-19T22:53:08;0.80;;;0.63;;
58874;SDS011;44652;49.040;12.126;2023-11-19T22:55:35;1.75;;;0.88;;
58874;SDS011;44652;49.040;12.126;2023-11-19T22:58:01;1.27;;;0.82;;
58874;SDS011;44652;49.040;12.126;2023-11-19T23:00:29;3.50;;;0.75;;
58874;SDS011;44652;49.040;12.126;2023-11-19T23:02:57;1.13;;;0.50;;
58874;SDS011;44652;49.040;12.126;2023-11-19T23:05:25;0.60;;;0.50;;
58874;SDS011;44652;49.040;12.126;2023-11-19T23:07:56;1.00;;;0.60;;
58874;SDS011;44652;49.040;12.126;2023-11-19T23:10:24;0.63;;;0.57;;
58874;SDS011;44652;49.040;12.126;2023-11-19T23:12:50;1.13;;;0.75;;
58874;SDS011;44652;49.040;12.126;2023-11-19T23:15:18;0.73;;;0.52;;